Time,TemperatureF,DewpointF,PressureIn,WindDirection,WindDirectionDegrees,WindSpeedMPH,WindSpeedGustMPH,Humidity,HourlyPrecipIn,Conditions,Clouds,dailyrainin,SoftwareType,DateUTC
2013-08-02 00:03:00,66.7,66.4,29.93,SE,135,0.0,-999.0,99,-99.99,,,0.00,Acu-Link.com,2013-08-02 05:03:00,
2013-08-02 00:18:00,66.9,66.6,29.93,South,180,0.0,-999.0,99,-99.99,,,0.00,Acu-Link.com,2013-08-02 05:18:00,
2013-08-02 00:34:00,66.4,66.1,29.93,West,270,0.0,-999.0,99,-99.99,,,0.00,Acu-Link.com,2013-08-02 05:34:00,
2013-08-02 00:49:00,66.6,66.3,29.93,SSE,157,0.0,-999.0,99,-99.99,,,0.00,Acu-Link.com,2013-08-02 05:49:00,
2013-08-02 01:04:00,65.5,65.2,29.93,SE,135,0.0,-999.0,99,-99.99,,,0.00,Acu-Link.com,2013-08-02 06:04:00,
2013-08-02 01:19:00,65.7,65.4,29.93,SE,135,0.0,-999.0,99,-99.99,,,0.00,Acu-Link.com,2013-08-02 06:19:00,
2013-08-02 01:34:00,65.5,65.2,29.92,SE,135,0.0,-999.0,99,-99.99,,,0.00,Acu-Link.com,2013-08-02 06:34:00,
2013-08-02 01:49:00,65.1,64.8,29.92,NNW,337,0.0,-999.0,99,-99.99,,,0.00,Acu-Link.com,2013-08-02 06:49:00,
2013-08-02 02:04:00,64.9,64.6,29.92,East,90,0.0,-999.0,99,-99.99,,,0.00,Acu-Link.com,2013-08-02 07:04:00,
2013-08-02 02:19:00,64.8,64.5,29.92,South,180,0.0,-999.0,99,-99.99,,,0.00,Acu-Link.com,2013-08-02 07:19:00,
2013-08-02 02:34:00,64.2,63.9,29.92,SW,225,0.0,-999.0,99,-99.99,,,0.00,Acu-Link.com,2013-08-02 07:34:00,
2013-08-02 02:50:00,64.2,63.9,29.92,West,270,0.0,-999.0,99,-99.99,,,0.00,Acu-Link.com,2013-08-02 07:50:00,
2013-08-02 03:05:00,64.2,63.9,29.92,NE,45,0.0,-999.0,99,-99.99,,,0.00,Acu-Link.com,2013-08-02 08:05:00,
2013-08-02 03:20:00,64.4,64.1,29.92,South,180,0.0,-999.0,99,-99.99,,,0.00,Acu-Link.com,2013-08-02 08:20:00,
2013-08-02 03:35:00,63.7,63.4,29.92,ENE,67,0.0,-999.0,99,-99.99,,,0.00,Acu-Link.com,2013-08-02 08:35:00,
2013-08-02 03:51:00,63.5,63.2,29.91,South,180,0.0,-999.0,99,-99.99,,,0.00,Acu-Link.com,2013-08-02 08:51:00,
2013-08-02 04:06:00,63.3,63.0,29.92,SW,225,0.0,-999.0,99,-99.99,,,0.00,Acu-Link.com,2013-08-02 09:06:00,
2013-08-02 04:21:00,63.5,63.2,29.91,SSE,157,0.0,-999.0,99,-99.99,,,0.00,Acu-Link.com,2013-08-02 09:21:00,
2013-08-02 04:51:00,63.0,62.7,29.91,SE,135,0.0,-999.0,99,-99.99,,,0.00,Acu-Link.com,2013-08-02 09:51:00,
2013-08-02 05:21:00,62.6,62.3,29.92,NE,45,0.0,-999.0,99,-99.99,,,0.00,Acu-Link.com,2013-08-02 10:21:00,
2013-08-02 05:36:00,62.4,62.1,29.93,South,180,0.0,-999.0,99,-99.99,,,0.00,Acu-Link.com,2013-08-02 10:36:00,
2013-08-02 06:07:00,62.4,62.1,29.93,SSE,157,0.0,-999.0,99,-99.99,,,0.00,Acu-Link.com,2013-08-02 11:07:00,
2013-08-02 06:22:00,62.2,61.9,29.92,SSE,157,0.0,-999.0,99,-99.99,,,0.00,Acu-Link.com,2013-08-02 11:22:00,
2013-08-02 06:37:00,62.2,61.9,29.92,SE,135,0.0,-999.0,99,-99.99,,,0.00,Acu-Link.com,2013-08-02 11:37:00,
2013-08-02 06:52:00,62.6,62.3,29.93,SE,135,0.0,-999.0,99,-99.99,,,0.00,Acu-Link.com,2013-08-02 11:52:00,
2013-08-02 07:07:00,63.3,63.0,29.93,SE,135,0.0,-999.0,99,-99.99,,,0.00,Acu-Link.com,2013-08-02 12:07:00,
2013-08-02 07:22:00,64.6,64.3,29.94,SE,135,0.0,-999.0,99,-99.99,,,0.00,Acu-Link.com,2013-08-02 12:22:00,
2013-08-02 07:37:00,67.1,66.8,29.93,ESE,112,0.0,-999.0,99,-99.99,,,0.00,Acu-Link.com,2013-08-02 12:37:00,
2013-08-02 07:52:00,68.4,19.0,29.93,SSE,157,0.0,-999.0,15,-99.99,,,0.00,Acu-Link.com,2013-08-02 12:52:00,
2013-08-02 08:07:00,71.6,70.7,29.94,SSW,202,0.0,-999.0,97,-99.99,,,0.00,Acu-Link.com,2013-08-02 13:07:00,
2013-08-02 08:22:00,74.7,74.1,29.94,SSE,157,0.0,-999.0,98,-99.99,,,0.00,Acu-Link.com,2013-08-02 13:22:00,
2013-08-02 08:38:00,76.8,76.5,29.94,SSW,202,0.0,-999.0,99,-99.99,,,0.00,Acu-Link.com,2013-08-02 13:38:00,
2013-08-02 08:53:00,78.4,78.1,29.95,WSW,247,2.2,-999.0,99,-99.99,,,0.00,Acu-Link.com,2013-08-02 13:53:00,
2013-08-02 09:08:00,79.3,77.1,29.95,West,270,2.7,-999.0,93,-99.99,,,0.00,Acu-Link.com,2013-08-02 14:08:00,
2013-08-02 09:23:00,78.1,74.6,29.95,SSW,202,0.0,-999.0,89,-99.99,,,0.00,Acu-Link.com,2013-08-02 14:23:00,
2013-08-02 09:38:00,79.3,73.7,29.94,SW,225,1.1,-999.0,83,-99.99,,,0.00,Acu-Link.com,2013-08-02 14:38:00,
2013-08-02 09:53:00,79.3,74.0,29.94,SSW,202,2.7,-999.0,84,-99.99,,,0.00,Acu-Link.com,2013-08-02 14:53:00,
2013-08-02 10:08:00,80.4,73.6,29.94,SSW,202,1.1,-999.0,80,-99.99,,,0.00,Acu-Link.com,2013-08-02 15:08:00,
2013-08-02 10:23:00,80.1,73.4,29.95,West,270,4.7,-999.0,80,-99.99,,,0.00,Acu-Link.com,2013-08-02 15:23:00,
2013-08-02 10:38:00,80.2,72.7,29.96,SSW,202,2.7,-999.0,78,-99.99,,,0.00,Acu-Link.com,2013-08-02 15:38:00,
2013-08-02 10:54:00,81.5,73.6,29.95,SSE,157,3.7,-999.0,77,-99.99,,,0.00,Acu-Link.com,2013-08-02 15:54:00,
2013-08-02 11:09:00,83.5,73.9,29.93,South,180,1.7,-999.0,73,-99.99,,,0.00,Acu-Link.com,2013-08-02 16:09:00,
2013-08-02 11:24:00,84.4,74.4,29.94,SE,135,2.7,-999.0,72,-99.99,,,0.00,Acu-Link.com,2013-08-02 16:24:00,
2013-08-02 11:39:00,85.6,74.2,29.94,SSE,157,2.2,-999.0,69,-99.99,,,0.00,Acu-Link.com,2013-08-02 16:39:00,
2013-08-02 11:54:00,85.8,73.5,29.94,SE,135,2.7,-999.0,67,-99.99,,,0.00,Acu-Link.com,2013-08-02 16:54:00,
2013-08-02 12:09:00,86.4,73.2,29.93,SSW,202,3.2,-999.0,65,-99.99,,,0.00,Acu-Link.com,2013-08-02 17:09:00,
2013-08-02 12:24:00,85.6,72.9,29.93,SSE,157,3.2,-999.0,66,-99.99,,,0.00,Acu-Link.com,2013-08-02 17:24:00,
2013-08-02 12:39:00,84.7,72.5,29.92,WSW,247,4.7,-999.0,67,-99.99,,,0.00,Acu-Link.com,2013-08-02 17:39:00,
2013-08-02 12:55:00,84.6,74.1,29.92,South,180,2.2,-999.0,71,-99.99,,,0.00,Acu-Link.com,2013-08-02 17:55:00,
2013-08-02 13:10:00,85.5,74.1,29.93,WSW,247,3.2,-999.0,69,-99.99,,,0.00,Acu-Link.com,2013-08-02 18:10:00,
2013-08-02 13:25:00,87.4,74.2,29.92,SE,135,2.7,-999.0,65,-99.99,,,0.00,Acu-Link.com,2013-08-02 18:25:00,
2013-08-02 13:40:00,87.4,74.2,29.92,WNW,292,2.2,-999.0,65,-99.99,,,0.00,Acu-Link.com,2013-08-02 18:40:00,
2013-08-02 13:55:00,89.4,73.1,29.92,SW,225,5.3,-999.0,59,-99.99,,,0.00,Acu-Link.com,2013-08-02 18:55:00,
2013-08-02 14:10:00,89.1,70.8,29.91,SE,135,1.7,-999.0,55,-99.99,,,0.00,Acu-Link.com,2013-08-02 19:10:00,
2013-08-02 14:25:00,89.4,72.6,29.90,South,180,2.2,-999.0,58,-99.99,,,0.00,Acu-Link.com,2013-08-02 19:25:00,
2013-08-02 14:40:00,89.2,70.3,29.90,SW,225,3.2,-999.0,54,-99.99,,,0.00,Acu-Link.com,2013-08-02 19:40:00,
2013-08-02 14:55:00,87.4,71.3,29.89,South,180,2.2,-999.0,59,-99.99,,,0.00,Acu-Link.com,2013-08-02 19:55:00,
2013-08-02 15:11:00,87.6,71.5,29.89,South,180,1.7,-999.0,59,-99.99,,,0.00,Acu-Link.com,2013-08-02 20:11:00,
2013-08-02 15:25:00,88.3,71.6,29.89,SW,225,2.7,-999.0,58,-99.99,,,0.00,Acu-Link.com,2013-08-02 20:25:00,
2013-08-02 15:41:00,86.4,71.8,29.90,SSW,202,3.7,-999.0,62,-99.99,,,0.00,Acu-Link.com,2013-08-02 20:41:00,
2013-08-02 15:56:00,86.0,72.8,29.89,SSW,202,1.7,-999.0,65,-99.99,,,0.00,Acu-Link.com,2013-08-02 20:56:00,
2013-08-02 16:11:00,84.9,72.7,29.88,SSE,157,1.7,-999.0,67,-99.99,,,0.00,Acu-Link.com,2013-08-02 21:11:00,
2013-08-02 16:26:00,84.4,73.1,29.89,SSE,157,1.7,-999.0,69,-99.99,,,0.00,Acu-Link.com,2013-08-02 21:26:00,
2013-08-02 16:41:00,83.8,73.4,29.88,SSE,157,2.2,-999.0,71,-99.99,,,0.00,Acu-Link.com,2013-08-02 21:41:00,
2013-08-02 16:56:00,83.1,73.9,29.88,SSE,157,1.1,-999.0,74,-99.99,,,0.00,Acu-Link.com,2013-08-02 21:56:00,
2013-08-02 17:11:00,82.8,74.0,29.87,South,180,1.1,-999.0,75,-99.99,,,0.00,Acu-Link.com,2013-08-02 22:11:00,
2013-08-02 17:27:00,82.8,74.8,29.86,SSE,157,0.0,-999.0,77,-99.99,,,0.00,Acu-Link.com,2013-08-02 22:27:00,
2013-08-02 17:42:00,82.4,74.8,29.86,South,180,1.7,-999.0,78,-99.99,,,0.00,Acu-Link.com,2013-08-02 22:42:00,
2013-08-02 17:57:00,82.4,75.2,29.86,SW,225,2.2,-999.0,79,-99.99,,,0.00,Acu-Link.com,2013-08-02 22:57:00,
2013-08-02 18:12:00,81.5,75.5,29.87,South,180,0.0,-999.0,82,-99.99,,,0.00,Acu-Link.com,2013-08-02 23:12:00,
2013-08-02 18:27:00,81.1,76.1,29.87,SE,135,1.1,-999.0,85,-99.99,,,0.00,Acu-Link.com,2013-08-02 23:27:00,
2013-08-02 18:42:00,80.2,77.0,29.86,SSE,157,0.0,-999.0,90,-99.99,,,0.00,Acu-Link.com,2013-08-02 23:42:00,
2013-08-02 18:57:00,79.9,76.7,29.87,ESE,112,0.0,-999.0,90,-99.99,,,0.00,Acu-Link.com,2013-08-02 23:57:00,
2013-08-02 19:12:00,79.5,77.0,29.86,South,180,0.0,-999.0,92,-99.99,,,0.00,Acu-Link.com,2013-08-03 00:12:00,
2013-08-02 19:27:00,79.0,76.8,29.86,South,180,0.0,-999.0,93,-99.99,,,0.00,Acu-Link.com,2013-08-03 00:27:00,
2013-08-02 19:42:00,78.8,76.6,29.85,ESE,112,1.1,-999.0,93,-99.99,,,0.00,Acu-Link.com,2013-08-03 00:42:00,
2013-08-02 19:58:00,78.4,76.8,29.86,South,180,1.1,-999.0,95,-99.99,,,0.00,Acu-Link.com,2013-08-03 00:58:00,
2013-08-02 20:13:00,77.9,76.7,29.91,WNW,292,2.7,-999.0,96,-99.99,,,0.00,Acu-Link.com,2013-08-03 01:13:00,
2013-08-02 20:28:00,77.0,76.7,29.91,East,90,0.0,-999.0,99,-99.99,,,0.01,Acu-Link.com,2013-08-03 01:28:00,
2013-08-02 20:43:00,75.6,75.3,29.91,ESE,112,0.0,-999.0,99,-99.99,,,0.02,Acu-Link.com,2013-08-03 01:43:00,
2013-08-02 20:58:00,74.7,74.4,29.89,NE,45,0.0,-999.0,99,-99.99,,,0.03,Acu-Link.com,2013-08-03 01:58:00,
2013-08-02 21:13:00,74.3,74.0,29.90,NNE,22,0.0,-999.0,99,-99.99,,,0.03,Acu-Link.com,2013-08-03 02:13:00,
2013-08-02 21:28:00,74.1,73.8,29.90,SE,135,0.0,-999.0,99,-99.99,,,0.03,Acu-Link.com,2013-08-03 02:28:00,
2013-08-02 21:43:00,73.9,73.6,29.89,ESE,112,0.0,-999.0,99,-99.99,,,0.03,Acu-Link.com,2013-08-03 02:43:00,
2013-08-02 21:58:00,73.8,73.5,29.89,South,180,0.0,-999.0,99,-99.99,,,0.03,Acu-Link.com,2013-08-03 02:58:00,
2013-08-02 22:13:00,73.6,73.3,29.89,East,90,0.0,-999.0,99,-99.99,,,0.03,Acu-Link.com,2013-08-03 03:13:00,
2013-08-02 22:29:00,73.6,73.3,29.89,NE,45,0.0,-999.0,99,-99.99,,,0.03,Acu-Link.com,2013-08-03 03:29:00,
2013-08-02 22:44:00,73.6,73.3,29.89,East,90,1.7,-999.0,99,-99.99,,,0.03,Acu-Link.com,2013-08-03 03:44:00,
2013-08-02 22:59:00,73.6,73.3,29.88,SE,135,1.7,-999.0,99,-99.99,,,0.03,Acu-Link.com,2013-08-03 03:59:00,
2013-08-02 23:14:00,73.2,72.9,29.87,South,180,1.7,-999.0,99,-99.99,,,0.03,Acu-Link.com,2013-08-03 04:14:00,
2013-08-02 23:29:00,72.9,72.6,29.87,SSE,157,0.0,-999.0,99,-99.99,,,0.03,Acu-Link.com,2013-08-03 04:29:00,
2013-08-02 23:44:00,72.3,72.0,29.87,South,180,0.0,-999.0,99,-99.99,,,0.03,Acu-Link.com,2013-08-03 04:44:00,
2013-08-02 23:59:00,72.0,71.7,29.86,SSW,202,1.7,-999.0,99,-99.99,,,0.03,Acu-Link.com,2013-08-03 04:59:00,